Time;durP1;ratioP1;P1;durP2;ratioP2;P2;SDS_P1;SDS_P2;PMS_P1;PMS_P2;Temp;Humidity;BMP_temperature;BMP_pressure;BME280_temperature;BME280_humidity;BME280_pressure;Samples;Min_cycle;Max_cycle;Signal;HPM_P1;HPM_P2
2023/05/14 00:00:54;;;;;;;7.68;4.43;;;10.10;85.80;;;;;;4963104;28;20634;-64
2023/05/14 00:03:21;;;;;;;4.28;3.97;;;10.00;86.00;;;;;;4963158;28;20061;-61
2023/05/14 00:05:48;;;;;;;5.18;4.35;;;10.00;86.20;;;;;;4958128;28;20164;-62
2023/05/14 00:08:15;;;;;;;4.50;4.07;;;10.00;86.20;;;;;;4954171;28;20134;-66
2023/05/14 00:10:42;;;;;;;10.57;4.50;;;10.00;86.50;;;;;;4963842;28;20131;-70
2023/05/14 00:13:09;;;;;;;5.25;3.95;;;10.00;86.20;;;;;;4953673;28;20047;-62
2023/05/14 00:15:36;;;;;;;5.32;4.80;;;10.00;86.20;;;;;;4960750;28;20082;-65
2023/05/14 00:18:03;;;;;;;11.23;4.38;;;9.90;86.50;;;;;;4943587;28;20158;-68
2023/05/14 00:20:30;;;;;;;7.18;4.47;;;9.90;86.60;;;;;;4955449;28;20286;-63
2023/05/14 00:22:57;;;;;;;6.47;5.22;;;9.90;86.70;;;;;;4958357;28;20055;-63
2023/05/14 00:25:24;;;;;;;5.53;4.95;;;9.90;87.10;;;;;;4960704;28;20043;-71
2023/05/14 00:27:50;;;;;;;5.18;4.70;;;9.90;86.90;;;;;;4956192;28;20294;-66
2023/05/14 00:30:17;;;;;;;5.57;4.07;;;9.90;86.90;;;;;;4951547;28;20174;-69
2023/05/14 00:32:44;;;;;;;7.10;4.55;;;9.90;86.90;;;;;;4952738;28;20078;-66
2023/05/14 00:35:11;;;;;;;4.82;4.30;;;9.90;86.70;;;;;;4955746;28;20077;-62
2023/05/14 00:37:38;;;;;;;6.00;4.85;;;9.90;87.50;;;;;;4958703;28;20050;-64
2023/05/14 00:40:07;;;;;;;5.45;4.93;;;9.90;87.40;;;;;;4960707;28;20078;-63
2023/05/14 00:42:34;;;;;;;6.28;4.75;;;9.90;87.90;;;;;;4956589;28;20050;-63
2023/05/14 00:45:01;;;;;;;5.25;4.38;;;9.80;87.50;;;;;;4946969;28;20061;-63
2023/05/14 00:47:28;;;;;;;6.53;4.78;;;9.80;87.80;;;;;;4963459;28;20074;-73
2023/05/14 00:49:55;;;;;;;9.70;4.93;;;9.80;87.50;;;;;;4951405;28;20043;-65
2023/05/14 00:52:22;;;;;;;6.20;4.35;;;9.80;87.60;;;;;;4958130;28;20067;-66
2023/05/14 00:54:49;;;;;;;7.50;4.95;;;9.90;87.50;;;;;;4954497;28;20223;-68
2023/05/14 00:57:18;;;;;;;5.03;4.53;;;9.90;87.50;;;;;;4965256;28;20054;-64
2023/05/14 00:59:45;;;;;;;8.38;4.05;;;9.90;87.40;;;;;;4962165;28;20129;-65
2023/05/14 01:02:12;;;;;;;7.68;4.63;;;9.90;87.50;;;;;;4957906;28;20146;-72
2023/05/14 01:04:40;;;;;;;5.82;4.68;;;9.90;87.20;;;;;;4957460;28;20066;-62
2023/05/14 01:07:20;;;;;;;5.68;4.40;;;10.00;87.00;;;;;;4949395;28;20055;-63
2023/05/14 01:10:11;;;;;;;5.27;4.77;;;10.00;86.90;;;;;;4961338;28;20079;-63
2023/05/14 01:12:57;;;;;;;7.30;4.15;;;10.00;87.20;;;;;;4951764;28;20295;-64
2023/05/14 01:15:29;;;;;;;4.88;4.55;;;10.00;86.80;;;;;;4956190;28;20063;-62
2023/05/14 01:18:02;;;;;;;4.38;3.97;;;10.00;86.80;;;;;;4963502;28;20692;-65
2023/05/14 01:20:29;;;;;;;7.35;4.40;;;10.00;87.00;;;;;;4957935;28;20059;-61
2023/05/14 01:22:56;;;;;;;6.85;4.55;;;10.00;87.00;;;;;;4958484;28;20039;-62
2023/05/14 01:25:24;;;;;;;4.78;4.07;;;10.00;86.30;;;;;;4961730;28;20063;-65
2023/05/14 01:28:05;;;;;;;4.60;4.20;;;10.00;86.50;;;;;;4960724;28;20061;-64
2023/05/14 01:30:32;;;;;;;;;;;9.90;86.70;;;;;;4951743;28;20110;-71
2023/05/14 01:33:02;;;;;;;5.13;3.72;;;9.90;87.10;;;;;;4941571;28;20364;-62
2023/05/14 01:35:29;;;;;;;4.28;3.88;;;9.90;87.20;;;;;;4960777;28;20050;-61
2023/05/14 01:37:59;;;;;;;5.30;4.15;;;9.90;86.50;;;;;;4953349;28;20062;-66
2023/05/14 01:40:27;;;;;;;7.35;5.18;;;9.90;87.10;;;;;;4952468;28;20130;-65
2023/05/14 01:42:55;;;;;;;4.75;4.20;;;9.90;86.90;;;;;;4960440;28;20146;-67
2023/05/14 01:45:23;;;;;;;4.57;4.18;;;9.90;87.00;;;;;;4958720;28;20117;-64
2023/05/14 01:47:50;;;;;;;5.55;4.18;;;9.90;86.90;;;;;;4959845;28;20109;-66
2023/05/14 01:50:17;;;;;;;4.72;3.75;;;9.80;86.60;;;;;;4952443;28;20055;-60
2023/05/14 01:52:44;;;;;;;5.20;4.00;;;9.80;86.80;;;;;;4959163;28;20063;-65
2023/05/14 01:55:11;;;;;;;6.00;4.50;;;9.80;87.00;;;;;;4963167;28;20145;-60
2023/05/14 01:57:38;;;;;;;6.68;4.13;;;9.70;86.70;;;;;;4949266;28;20512;-59
2023/05/14 02:00:06;;;;;;;4.38;3.97;;;9.70;87.20;;;;;;4957120;28;20082;-63
2023/05/14 02:02:39;;;;;;;7.60;4.47;;;9.70;87.40;;;;;;4949541;28;20154;-64
2023/05/14 02:05:09;;;;;;;8.00;4.50;;;9.70;87.80;;;;;;4952887;28;20095;-63
2023/05/14 02:07:36;;;;;;;4.68;3.70;;;9.60;87.60;;;;;;4950100;28;20130;-66
2023/05/14 02:10:04;;;;;;;4.65;3.75;;;9.60;87.80;;;;;;4959313;28;20709;-60
2023/05/14 02:12:31;;;;;;;4.68;4.22;;;9.60;88.30;;;;;;4957832;28;20085;-60
2023/05/14 02:14:57;;;;;;;4.53;4.13;;;9.60;88.40;;;;;;4953379;28;20053;-67
2023/05/14 02:17:26;;;;;;;5.65;4.38;;;9.60;88.70;;;;;;4953526;28;20062;-60
2023/05/14 02:19:53;;;;;;;9.45;5.00;;;9.60;88.30;;;;;;4947423;28;20054;-65
2023/05/14 02:22:20;;;;;;;6.45;3.72;;;9.50;88.40;;;;;;4972467;28;20093;-64
2023/05/14 02:24:48;;;;;;;4.55;3.75;;;9.50;88.10;;;;;;4943379;28;20176;-61
2023/05/14 02:27:16;;;;;;;5.18;3.65;;;9.50;87.90;;;;;;4961388;28;20054;-63
2023/05/14 02:29:43;;;;;;;5.55;4.50;;;9.50;87.60;;;;;;4954192;28;20139;-62
2023/05/14 02:32:10;;;;;;;7.90;4.97;;;9.50;87.60;;;;;;4961418;28;21068;-61
2023/05/14 02:34:38;;;;;;;6.60;4.13;;;9.50;87.70;;;;;;4949368;28;20051;-71
2023/05/14 02:37:05;;;;;;;7.32;4.70;;;9.50;87.90;;;;;;4954292;28;20102;-66
2023/05/14 02:39:32;;;;;;;6.15;3.97;;;9.40;88.20;;;;;;4960314;28;20055;-65
2023/05/14 02:41:59;;;;;;;5.13;4.32;;;9.50;88.30;;;;;;4958492;28;20062;-60
2023/05/14 02:44:25;;;;;;;5.97;5.05;;;9.40;88.40;;;;;;4949178;28;20089;-64
2023/05/14 02:46:52;;;;;;;6.88;4.63;;;9.40;88.70;;;;;;4954878;28;20134;-66
2023/05/14 02:49:19;;;;;;;5.47;4.22;;;9.40;89.10;;;;;;4957028;28;20086;-64
2023/05/14 02:51:46;;;;;;;6.15;4.00;;;9.40;89.30;;;;;;4944972;28;20138;-65
2023/05/14 02:54:15;;;;;;;8.73;4.57;;;9.40;89.50;;;;;;4955713;28;20043;-65
2023/05/14 02:56:42;;;;;;;5.72;3.88;;;9.40;89.80;;;;;;4950891;28;20070;-60
2023/05/14 02:59:09;;;;;;;4.28;3.90;;;9.40;89.50;;;;;;4945585;28;20504;-60
2023/05/14 03:01:36;;;;;;;8.88;5.30;;;9.40;89.10;;;;;;4960180;28;20047;-65
2023/05/14 03:04:04;;;;;;;7.78;4.75;;;9.40;89.90;;;;;;4958485;28;20059;-62
2023/05/14 03:06:31;;;;;;;5.88;4.32;;;9.40;90.00;;;;;;4952791;28;20524;-60
2023/05/14 03:08:58;;;;;;;4.53;4.10;;;9.40;90.00;;;;;;4951975;28;20614;-70
2023/05/14 03:11:25;;;;;;;7.63;4.82;;;9.50;90.20;;;;;;4960735;28;20047;-67
2023/05/14 03:13:52;;;;;;;4.72;4.32;;;9.50;90.10;;;;;;4955275;28;20047;-66
2023/05/14 03:16:18;;;;;;;4.07;3.78;;;9.50;89.80;;;;;;4951349;28;20055;-62
2023/05/14 03:18:45;;;;;;;4.68;4.28;;;9.50;89.70;;;;;;4955741;28;20556;-64
2023/05/14 03:21:12;;;;;;;7.72;4.45;;;9.50;89.50;;;;;;4946729;28;20421;-62
2023/05/14 03:23:39;;;;;;;4.55;4.20;;;9.60;90.10;;;;;;4954038;28;20132;-68
2023/05/14 03:26:07;;;;;;;4.60;4.20;;;9.60;88.70;;;;;;4957853;28;20532;-62
2023/05/14 03:28:34;;;;;;;4.72;4.32;;;9.70;88.10;;;;;;4955943;28;20119;-61
2023/05/14 03:31:01;;;;;;;5.00;4.18;;;9.80;87.60;;;;;;4957398;28;20059;-63
2023/05/14 03:33:30;;;;;;;4.18;3.78;;;9.90;87.60;;;;;;4960588;28;20050;-60
2023/05/14 03:35:56;;;;;;;7.28;3.88;;;10.00;87.10;;;;;;4966245;28;20047;-67
2023/05/14 03:38:23;;;;;;;4.75;3.58;;;10.10;86.50;;;;;;4947457;28;20576;-60
2023/05/14 03:40:50;;;;;;;6.22;3.78;;;10.10;86.80;;;;;;4954763;28;20055;-68
2023/05/14 03:43:17;;;;;;;5.90;3.65;;;10.20;86.80;;;;;;4953277;28;20070;-61
2023/05/14 03:45:44;;;;;;;5.43;4.18;;;10.30;86.80;;;;;;4958842;28;20051;-62
2023/05/14 03:48:11;;;;;;;3.78;3.47;;;10.40;87.40;;;;;;4956802;28;20421;-60
2023/05/14 03:50:39;;;;;;;6.57;3.67;;;10.40;86.60;;;;;;4959299;28;20061;-61
2023/05/14 03:53:05;;;;;;;4.85;4.05;;;10.50;86.10;;;;;;4953764;28;20454;-65
2023/05/14 03:55:32;;;;;;;7.70;4.78;;;10.60;85.80;;;;;;4948510;28;20113;-72
2023/05/14 03:57:59;;;;;;;6.63;4.25;;;10.80;85.60;;;;;;4950566;28;20905;-62
2023/05/14 04:00:27;;;;;;;4.68;4.28;;;11.00;84.90;;;;;;4951127;28;20456;-60
2023/05/14 04:02:54;;;;;;;5.72;4.15;;;11.30;85.40;;;;;;4951789;28;20476;-63
2023/05/14 04:05:22;;;;;;;10.52;4.53;;;11.30;88.30;;;;;;4957360;28;20162;-61
2023/05/14 04:07:51;;;;;;;6.88;4.10;;;11.30;88.80;;;;;;4966822;28;20062;-64
2023/05/14 04:10:19;;;;;;;6.82;4.65;;;11.30;89.40;;;;;;4948724;28;20047;-67
2023/05/14 04:12:46;;;;;;;5.05;4.38;;;11.30;89.80;;;;;;4950024;28;20549;-62
2023/05/14 04:15:13;;;;;;;4.68;4.28;;;11.40;90.00;;;;;;4956455;28;20370;-68
2023/05/14 04:17:41;;;;;;;9.10;5.72;;;11.40;91.10;;;;;;4967663;28;20048;-64
2023/05/14 04:20:09;;;;;;;4.10;3.80;;;11.40;91.30;;;;;;4955459;28;20074;-66
2023/05/14 04:22:35;;;;;;;6.40;5.90;;;11.40;91.40;;;;;;4951430;28;20537;-69
2023/05/14 04:25:02;;;;;;;8.68;4.40;;;11.30;91.80;;;;;;4958159;28;20787;-69
2023/05/14 04:27:29;;;;;;;6.68;4.78;;;11.30;91.70;;;;;;4946899;28;20071;-63
2023/05/14 04:29:57;;;;;;;5.55;4.15;;;11.30;91.90;;;;;;4960122;28;20066;-63
2023/05/14 04:32:24;;;;;;;4.40;3.60;;;11.20;91.80;;;;;;4953284;28;20121;-73
2023/05/14 04:34:51;;;;;;;4.78;4.35;;;11.20;91.40;;;;;;4956785;28;20142;-64
2023/05/14 04:37:18;;;;;;;5.28;4.47;;;11.20;91.90;;;;;;4954667;28;20142;-65
2023/05/14 04:39:45;;;;;;;3.95;3.70;;;11.30;92.30;;;;;;4955412;28;20059;-65
2023/05/14 04:42:12;;;;;;;5.10;4.25;;;11.30;91.90;;;;;;4950925;28;20078;-61
2023/05/14 04:44:39;;;;;;;5.47;4.97;;;11.30;92.60;;;;;;4958289;28;20172;-67
2023/05/14 04:47:06;;;;;;;4.50;4.10;;;11.30;92.60;;;;;;4951371;28;20111;-62
2023/05/14 04:49:33;;;;;;;4.90;4.50;;;11.30;91.90;;;;;;4953209;28;20047;-62
2023/05/14 04:52:01;;;;;;;5.97;4.60;;;11.40;92.60;;;;;;4944516;28;20082;-65
2023/05/14 04:54:28;;;;;;;4.38;4.03;;;11.40;92.50;;;;;;4947979;28;20061;-66
2023/05/14 04:56:55;;;;;;;6.45;4.07;;;11.40;92.30;;;;;;4957170;28;20126;-63
2023/05/14 04:59:22;;;;;;;6.40;5.07;;;11.50;92.40;;;;;;4951732;28;20071;-59
2023/05/14 05:01:48;;;;;;;5.78;4.60;;;11.50;92.20;;;;;;4961897;28;20059;-67
2023/05/14 05:04:15;;;;;;;4.30;3.92;;;11.50;92.20;;;;;;4957916;28;20133;-63
2023/05/14 05:06:42;;;;;;;4.78;4.32;;;11.60;92.00;;;;;;4958245;28;20063;-70
2023/05/14 05:09:09;;;;;;;3.85;3.55;;;11.70;92.40;;;;;;4958935;28;20189;-65
2023/05/14 05:11:37;;;;;;;7.85;4.68;;;11.70;92.30;;;;;;4957685;28;20593;-62
2023/05/14 05:14:04;;;;;;;5.45;4.10;;;11.80;92.30;;;;;;4956911;28;20092;-63
2023/05/14 05:16:31;;;;;;;4.72;4.15;;;11.80;91.80;;;;;;4956069;28;20471;-61
2023/05/14 05:18:58;;;;;;;5.32;4.10;;;11.90;92.10;;;;;;4962007;28;20548;-64
2023/05/14 05:21:25;;;;;;;5.57;4.07;;;12.00;92.30;;;;;;4963602;28;20065;-67
2023/05/14 05:23:52;;;;;;;4.90;4.50;;;12.10;92.30;;;;;;4959545;28;20094;-60
2023/05/14 05:26:21;;;;;;;5.90;4.57;;;12.20;92.70;;;;;;4955369;28;20129;-62
2023/05/14 05:28:47;;;;;;;4.88;4.38;;;12.30;92.30;;;;;;4942422;28;20135;-66
2023/05/14 05:31:15;;;;;;;9.18;4.60;;;12.40;91.60;;;;;;4956673;28;20165;-67
2023/05/14 05:33:45;;;;;;;8.57;5.10;;;12.60;91.40;;;;;;4955614;28;20594;-60
2023/05/14 05:36:12;;;;;;;5.00;4.50;;;12.80;91.30;;;;;;4955466;28;20150;-67
2023/05/14 05:38:39;;;;;;;5.55;4.68;;;12.90;91.20;;;;;;4953361;28;20055;-65
2023/05/14 05:41:06;;;;;;;4.65;4.07;;;13.00;90.80;;;;;;4952120;28;20527;-72
2023/05/14 05:43:33;;;;;;;5.22;3.63;;;13.10;90.50;;;;;;4952674;28;20153;-68
2023/05/14 05:46:00;;;;;;;4.47;4.07;;;13.30;90.00;;;;;;4958274;28;20086;-70
2023/05/14 05:48:27;;;;;;;4.47;4.13;;;13.40;89.40;;;;;;4956404;28;20050;-69
2023/05/14 05:50:54;;;;;;;5.28;4.05;;;13.60;90.00;;;;;;4955986;28;20145;-68
2023/05/14 05:53:21;;;;;;;3.67;3.38;;;13.80;90.40;;;;;;4958534;28;20113;-61
2023/05/14 05:55:50;;;;;;;5.22;3.45;;;14.00;87.70;;;;;;4953324;28;20117;-64
2023/05/14 05:58:18;;;;;;;4.53;3.40;;;14.20;84.60;;;;;;4957827;28;20561;-61
2023/05/14 06:00:45;;;;;;;4.13;3.65;;;14.50;81.40;;;;;;4960744;28;20049;-66
2023/05/14 06:03:13;;;;;;;4.45;3.92;;;14.60;80.40;;;;;;4953922;28;20055;-65
2023/05/14 06:05:40;;;;;;;3.45;3.15;;;14.90;79.50;;;;;;4953936;28;20055;-62
2023/05/14 06:08:07;;;;;;;3.53;3.22;;;15.00;77.60;;;;;;4955625;28;20043;-64
2023/05/14 06:10:35;;;;;;;3.92;3.53;;;15.20;76.60;;;;;;4958534;28;20077;-61
2023/05/14 06:13:02;;;;;;;3.35;3.05;;;15.30;78.50;;;;;;4955774;28;20039;-60
2023/05/14 06:15:28;;;;;;;5.18;3.42;;;15.40;76.50;;;;;;4952117;28;20062;-66
2023/05/14 06:17:55;;;;;;;5.68;3.20;;;15.50;76.70;;;;;;4951299;28;20047;-62
2023/05/14 06:20:22;;;;;;;3.17;2.90;;;15.60;76.60;;;;;;4957066;28;20058;-60
2023/05/14 06:22:50;;;;;;;4.72;3.75;;;15.80;74.40;;;;;;4956680;28;20051;-63
2023/05/14 06:25:17;;;;;;;4.97;4.07;;;15.90;74.60;;;;;;4962375;28;20035;-62
2023/05/14 06:27:44;;;;;;;3.20;2.90;;;16.10;74.00;;;;;;4951252;28;20091;-64
2023/05/14 06:30:11;;;;;;;4.00;2.78;;;16.40;73.60;;;;;;4955894;28;20893;-62
2023/05/14 06:32:38;;;;;;;4.15;2.88;;;16.50;73.20;;;;;;4937838;28;20107;-63
2023/05/14 06:35:06;;;;;;;7.57;3.03;;;16.60;74.20;;;;;;4957393;28;20055;-60
2023/05/14 06:37:32;;;;;;;3.50;2.67;;;16.80;73.30;;;;;;4956736;28;20553;-68
2023/05/14 06:40:00;;;;;;;3.42;3.10;;;16.80;73.10;;;;;;4962167;28;20050;-68
2023/05/14 06:42:27;;;;;;;4.88;2.90;;;16.90;73.30;;;;;;4961466;28;20058;-61
2023/05/14 06:44:54;;;;;;;6.13;4.95;;;17.00;73.60;;;;;;4959626;28;20524;-68
2023/05/14 06:47:21;;;;;;;4.78;3.65;;;17.10;72.70;;;;;;4961265;28;20049;-60
2023/05/14 06:49:48;;;;;;;4.10;2.65;;;17.20;71.60;;;;;;4957498;28;20145;-65
2023/05/14 06:52:15;;;;;;;3.88;3.17;;;17.20;72.70;;;;;;4961098;28;20050;-67
2023/05/14 06:54:42;;;;;;;5.18;3.42;;;17.20;72.70;;;;;;4960897;28;20047;-60
2023/05/14 06:57:09;;;;;;;3.92;2.70;;;17.40;71.70;;;;;;4960080;28;20077;-64
2023/05/14 06:59:36;;;;;;;5.60;3.13;;;17.50;71.50;;;;;;4959326;28;20500;-72
2023/05/14 07:02:03;;;;;;;5.85;2.53;;;17.70;70.50;;;;;;4960632;28;20101;-65
2023/05/14 07:04:29;;;;;;;3.47;3.17;;;17.70;71.40;;;;;;4962753;28;20053;-64
2023/05/14 07:06:56;;;;;;;4.75;3.35;;;17.80;71.80;;;;;;4957509;28;20479;-67
2023/05/14 07:09:23;;;;;;;3.83;3.17;;;17.80;71.50;;;;;;4963556;28;20179;-62
2023/05/14 07:11:50;;;;;;;4.35;2.97;;;17.90;72.70;;;;;;4958623;28;20053;-61
2023/05/14 07:14:17;;;;;;;5.88;3.05;;;18.00;72.10;;;;;;4962832;28;20121;-66
2023/05/14 07:16:45;;;;;;;7.30;3.30;;;18.10;71.50;;;;;;4956324;28;20879;-63
2023/05/14 07:19:12;;;;;;;7.53;4.60;;;18.20;70.10;;;;;;4957737;28;20065;-62
2023/05/14 07:21:39;;;;;;;3.20;3.00;;;18.40;70.40;;;;;;4955133;28;20089;-70
2023/05/14 07:24:06;;;;;;;3.20;2.90;;;18.50;69.80;;;;;;4963553;28;20061;-60
2023/05/14 07:26:33;;;;;;;5.20;3.10;;;18.60;70.30;;;;;;4962020;28;20057;-64
2023/05/14 07:29:00;;;;;;;6.30;3.40;;;18.60;70.20;;;;;;4958739;28;20055;-68
2023/05/14 07:31:27;;;;;;;3.35;2.78;;;18.70;71.00;;;;;;4961353;28;20069;-63
2023/05/14 07:33:54;;;;;;;3.60;3.33;;;18.80;71.50;;;;;;4963080;28;20129;-62
2023/05/14 07:36:22;;;;;;;5.70;2.70;;;18.90;72.20;;;;;;4958662;28;20106;-63
2023/05/14 07:38:49;;;;;;;6.03;3.53;;;19.00;71.60;;;;;;4957734;28;20038;-62
2023/05/14 07:41:16;;;;;;;3.03;2.72;;;19.10;71.30;;;;;;4957443;28;20388;-63
2023/05/14 07:43:42;;;;;;;9.60;4.03;;;19.10;72.20;;;;;;4958813;28;20324;-62
2023/05/14 07:46:09;;;;;;;6.03;3.10;;;19.20;71.90;;;;;;4952909;28;20047;-62
2023/05/14 07:48:36;;;;;;;5.43;4.13;;;19.30;72.20;;;;;;4953251;28;20059;-69
2023/05/14 07:51:03;;;;;;;3.90;3.60;;;19.40;72.20;;;;;;4963745;28;20050;-64
2023/05/14 07:53:30;;;;;;;3.63;3.08;;;19.50;72.00;;;;;;4958881;28;21578;-63
2023/05/14 07:55:58;;;;;;;3.42;3.13;;;19.60;72.10;;;;;;4951284;28;20145;-63
2023/05/14 07:58:26;;;;;;;4.53;3.83;;;19.70;72.90;;;;;;4960197;28;20059;-64
2023/05/14 08:00:54;;;;;;;3.50;2.90;;;19.80;71.70;;;;;;4959906;28;20050;-65
2023/05/14 08:03:20;;;;;;;3.45;3.15;;;19.90;70.80;;;;;;4955724;28;20112;-62
2023/05/14 08:05:47;;;;;;;6.50;3.17;;;20.10;70.50;;;;;;4954233;28;20046;-68
2023/05/14 08:08:15;;;;;;;4.72;3.30;;;20.20;70.70;;;;;;4956659;28;20050;-65
2023/05/14 08:10:41;;;;;;;5.20;4.00;;;20.30;70.90;;;;;;4955309;28;20050;-62
2023/05/14 08:13:08;;;;;;;3.92;3.17;;;20.40;70.70;;;;;;4954702;28;20069;-61
2023/05/14 08:15:36;;;;;;;8.85;2.88;;;20.40;68.80;;;;;;4958018;28;20046;-64
2023/05/14 08:18:02;;;;;;;5.88;3.75;;;20.50;70.00;;;;;;4956255;28;20058;-61
2023/05/14 08:20:30;;;;;;;4.57;3.20;;;20.50;69.70;;;;;;4956668;28;20049;-60
2023/05/14 08:22:57;;;;;;;3.63;3.33;;;20.60;67.00;;;;;;4952425;28;20571;-60
2023/05/14 08:25:24;;;;;;;5.13;2.97;;;20.70;68.10;;;;;;4955939;28;20062;-63
2023/05/14 08:27:52;;;;;;;5.20;2.70;;;20.70;67.90;;;;;;4967226;28;20664;-65
2023/05/14 08:30:20;;;;;;;4.32;2.60;;;20.80;66.10;;;;;;4967299;28;20634;-67
2023/05/14 08:32:47;;;;;;;3.17;2.83;;;20.90;67.50;;;;;;4966736;28;20059;-62
2023/05/14 08:35:15;;;;;;;3.13;2.35;;;21.00;67.60;;;;;;4966926;28;20145;-66
2023/05/14 08:37:42;;;;;;;7.07;2.97;;;21.10;64.30;;;;;;4967729;28;20053;-71
2023/05/14 08:40:09;;;;;;;3.28;2.88;;;21.10;64.90;;;;;;4964496;28;20088;-60
2023/05/14 08:42:40;;;;;;;8.23;2.75;;;21.30;65.30;;;;;;4959216;28;20074;-67
2023/05/14 08:45:15;;;;;;;3.35;2.83;;;21.40;64.70;;;;;;4960915;28;20129;-61
2023/05/14 08:47:49;;;;;;;5.15;3.05;;;21.40;64.30;;;;;;4963212;28;20408;-61
2023/05/14 08:50:18;;;;;;;6.63;3.97;;;21.50;65.50;;;;;;4964423;28;20058;-60
2023/05/14 08:52:49;;;;;;;3.42;3.10;;;21.60;64.20;;;;;;4961917;28;20339;-61
2023/05/14 08:55:15;;;;;;;2.92;2.25;;;21.70;65.10;;;;;;4955451;28;20051;-64
2023/05/14 08:57:42;;;;;;;4.00;2.75;;;21.70;62.50;;;;;;4962037;28;20057;-62
2023/05/14 09:00:10;;;;;;;2.60;2.38;;;21.80;63.20;;;;;;4960434;28;20130;-60
2023/05/14 09:02:39;;;;;;;5.38;3.22;;;21.90;63.70;;;;;;4961410;28;20051;-70
2023/05/14 09:05:08;;;;;;;5.80;3.15;;;22.00;63.30;;;;;;4965258;28;20055;-61
2023/05/14 09:07:35;;;;;;;3.85;2.47;;;22.20;63.90;;;;;;4963806;28;20199;-65
2023/05/14 09:10:03;;;;;;;2.40;2.20;;;22.30;62.70;;;;;;4962015;28;20102;-63
2023/05/14 09:12:30;;;;;;;2.70;2.35;;;22.30;63.20;;;;;;4960164;28;20046;-62
2023/05/14 09:14:57;;;;;;;4.20;3.47;;;22.20;61.60;;;;;;4962766;28;20138;-60
2023/05/14 09:17:26;;;;;;;2.60;2.25;;;22.10;63.00;;;;;;4959500;28;20179;-65
2023/05/14 09:19:53;;;;;;;4.00;2.90;;;22.10;61.60;;;;;;4963011;28;20047;-62
2023/05/14 09:22:20;;;;;;;4.00;2.63;;;22.00;62.00;;;;;;4964283;28;20057;-64
2023/05/14 09:25:02;;;;;;;3.90;2.35;;;22.10;62.10;;;;;;4946709;28;20117;-63
2023/05/14 09:27:30;;;;;;;5.97;2.70;;;22.10;62.40;;;;;;4961204;28;20517;-64
2023/05/14 09:30:04;;;;;;;3.13;2.13;;;22.30;60.60;;;;;;4964578;28;20057;-67
2023/05/14 09:32:36;;;;;;;2.60;2.40;;;22.40;61.90;;;;;;4958192;28;20482;-64
2023/05/14 09:35:20;;;;;;;2.95;2.00;;;22.30;60.00;;;;;;4967362;28;20051;-62
2023/05/14 09:37:49;;;;;;;8.23;4.93;;;22.30;60.80;;;;;;4962040;28;20043;-61
2023/05/14 09:40:18;;;;;;;3.83;2.45;;;22.20;60.50;;;;;;4959080;28;20063;-64
2023/05/14 09:42:47;;;;;;;6.63;2.78;;;22.20;63.00;;;;;;4960595;28;20057;-71
2023/05/14 09:45:15;;;;;;;4.35;2.50;;;22.20;62.20;;;;;;4955832;28;20054;-62
2023/05/14 09:47:43;;;;;;;5.18;2.30;;;22.20;63.30;;;;;;4962778;28;20456;-61
2023/05/14 09:50:11;;;;;;;4.95;2.55;;;22.20;62.50;;;;;;4963625;28;20047;-60
2023/05/14 09:52:38;;;;;;;2.80;2.60;;;22.40;61.70;;;;;;4964997;28;20057;-62
2023/05/14 09:55:06;;;;;;;7.53;3.33;;;22.50;61.70;;;;;;4945984;28;20445;-60
2023/05/14 09:57:34;;;;;;;3.88;2.40;;;22.60;61.40;;;;;;4960815;28;20469;-66
2023/05/14 10:00:01;;;;;;;2.78;2.58;;;22.80;63.00;;;;;;4958537;28;20055;-62
2023/05/14 10:02:36;;;;;;;5.20;2.47;;;23.00;63.20;;;;;;4956835;28;20750;-70
2023/05/14 10:05:05;;;;;;;4.88;4.10;;;23.10;61.10;;;;;;4958740;28;20641;-61
2023/05/14 10:07:46;;;;;;;6.72;2.75;;;23.30;62.90;;;;;;4964491;28;20062;-66
2023/05/14 10:10:17;;;;;;;5.95;2.70;;;23.60;62.50;;;;;;4962093;28;20070;-61
2023/05/14 10:12:54;;;;;;;4.55;2.75;;;23.80;60.80;;;;;;4964565;28;20505;-62
2023/05/14 10:15:48;;;;;;;3.47;3.20;;;24.10;61.00;;;;;;4960413;28;20073;-65
2023/05/14 10:18:18;;;;;;;5.97;3.88;;;24.10;61.50;;;;;;4947442;28;20058;-65
2023/05/14 10:20:59;;;;;;;3.88;2.45;;;24.10;61.70;;;;;;4957567;28;20083;-65
2023/05/14 10:23:26;;;;;;;4.05;2.40;;;23.80;59.50;;;;;;4956521;28;20059;-62
2023/05/14 10:25:53;;;;;;;4.50;2.95;;;23.60;60.30;;;;;;4962552;28;20712;-65
2023/05/14 10:28:20;;;;;;;5.72;2.30;;;23.40;61.30;;;;;;4961787;28;20059;-64
2023/05/14 10:30:48;;;;;;;4.32;2.50;;;23.10;60.80;;;;;;4961348;28;20622;-65
2023/05/14 10:33:17;;;;;;;3.58;2.72;;;23.00;61.80;;;;;;4955973;28;20051;-60
2023/05/14 10:35:58;;;;;;;3.33;2.47;;;22.80;61.00;;;;;;4956741;28;20063;-63
2023/05/14 10:38:33;;;;;;;3.10;2.83;;;22.90;63.00;;;;;;4958434;28;20402;-61
2023/05/14 10:41:11;;;;;;;5.85;2.63;;;23.00;62.10;;;;;;4956108;28;20138;-62
2023/05/14 10:43:39;;;;;;;4.03;2.92;;;23.10;61.80;;;;;;4958727;28;20420;-62
2023/05/14 10:46:07;;;;;;;7.78;2.50;;;23.40;63.50;;;;;;4957428;28;20492;-61
2023/05/14 10:48:36;;;;;;;3.25;2.90;;;23.70;61.30;;;;;;4947622;28;20043;-64
2023/05/14 10:51:07;;;;;;;5.57;4.97;;;24.00;60.50;;;;;;4953958;28;20405;-62
2023/05/14 10:53:37;;;;;;;3.75;2.72;;;23.70;60.30;;;;;;4957806;28;20082;-62
2023/05/14 10:56:12;;;;;;;3.13;2.50;;;23.60;60.70;;;;;;4960624;28;20047;-61
2023/05/14 10:58:41;;;;;;;4.07;3.65;;;23.40;61.70;;;;;;4957904;28;20146;-72
2023/05/14 11:01:10;;;;;;;6.45;3.13;;;23.20;61.80;;;;;;4956951;28;20078;-60
2023/05/14 11:03:42;;;;;;;2.38;2.15;;;22.90;61.90;;;;;;4955358;28;20174;-66
2023/05/14 11:06:10;;;;;;;3.50;2.53;;;22.80;62.10;;;;;;4959979;28;20124;-61
2023/05/14 11:08:37;;;;;;;3.67;2.80;;;22.60;62.10;;;;;;4957420;28;20055;-63
2023/05/14 11:11:05;;;;;;;4.78;3.00;;;22.50;63.60;;;;;;4955503;28;20062;-61
2023/05/14 11:13:33;;;;;;;4.38;2.88;;;22.40;62.70;;;;;;4958882;28;20055;-61
2023/05/14 11:16:01;;;;;;;4.47;2.83;;;22.40;62.80;;;;;;4957392;28;20482;-61
2023/05/14 11:18:47;;;;;;;5.82;4.20;;;22.50;64.90;;;;;;4953096;28;20066;-63
2023/05/14 11:21:16;;;;;;;2.83;2.47;;;22.80;62.90;;;;;;4958366;28;20050;-61
2023/05/14 11:23:45;;;;;;;6.68;3.38;;;23.20;61.90;;;;;;4961075;28;20089;-65
2023/05/14 11:26:12;;;;;;;5.30;2.40;;;23.40;62.60;;;;;;4961570;28;20065;-65
2023/05/14 11:28:39;;;;;;;3.78;3.30;;;23.30;63.80;;;;;;4962086;28;20511;-63
2023/05/14 11:31:06;;;;;;;8.25;2.70;;;23.30;62.70;;;;;;4957716;28;20079;-64
2023/05/14 11:33:34;;;;;;;8.75;3.17;;;23.50;62.20;;;;;;4958177;28;20046;-65
2023/05/14 11:36:02;;;;;;;3.90;3.30;;;23.70;63.20;;;;;;4954172;28;20059;-64
2023/05/14 11:38:29;;;;;;;4.72;2.83;;;23.90;61.60;;;;;;4956001;28;20157;-66
2023/05/14 11:40:57;;;;;;;4.75;2.50;;;24.10;62.00;;;;;;4952487;28;20047;-63
2023/05/14 11:43:27;;;;;;;4.28;3.72;;;24.50;62.50;;;;;;4960866;28;20382;-67
2023/05/14 11:45:55;;;;;;;;;;;24.60;60.80;;;;;;4959452;28;20051;-67
2023/05/14 11:48:22;;;;;;;9.00;5.38;;;24.80;61.80;;;;;;4944839;28;19930;-63
2023/05/14 11:50:51;;;;;;;4.00;3.33;;;24.60;59.40;;;;;;4951328;28;20737;-70
2023/05/14 11:53:19;;;;;;;6.28;3.38;;;24.60;61.20;;;;;;4952291;28;20133;-61
2023/05/14 11:55:46;;;;;;;5.13;3.00;;;24.50;61.30;;;;;;4956242;28;20055;-68
2023/05/14 11:58:14;;;;;;;7.90;2.97;;;24.40;60.70;;;;;;4960781;28;20493;-62
2023/05/14 12:00:44;;;;;;;3.53;2.83;;;24.10;61.80;;;;;;4953935;28;20051;-64
2023/05/14 12:03:11;;;;;;;9.85;2.67;;;24.10;60.20;;;;;;4969358;28;20058;-63
2023/05/14 12:05:39;;;;;;;4.53;2.72;;;23.90;60.00;;;;;;4958087;28;20051;-63
2023/05/14 12:08:36;;;;;;;5.60;2.72;;;24.10;60.10;;;;;;4957263;28;20557;-64
2023/05/14 12:11:03;;;;;;;5.07;2.67;;;24.50;63.60;;;;;;4935396;28;20050;-62
2023/05/14 12:13:31;;;;;;;2.22;2.13;;;24.90;62.40;;;;;;4960110;28;20097;-61
2023/05/14 12:16:04;;;;;;;4.07;2.65;;;25.00;62.30;;;;;;4950776;28;20062;-61
2023/05/14 12:18:31;;;;;;;2.50;2.30;;;25.20;60.40;;;;;;4955916;28;20466;-63
2023/05/14 12:21:03;;;;;;;7.05;3.53;;;25.20;60.20;;;;;;4957800;28;20101;-61
2023/05/14 12:23:31;;;;;;;3.25;2.88;;;25.20;62.00;;;;;;4952499;28;20043;-61
2023/05/14 12:26:06;;;;;;;4.53;2.85;;;25.10;59.90;;;;;;4956316;28;20126;-60
2023/05/14 12:28:34;;;;;;;3.80;2.75;;;25.00;59.80;;;;;;4953543;28;20051;-67
2023/05/14 12:31:04;;;;;;;10.63;3.13;;;24.90;61.50;;;;;;4956254;28;20075;-66
2023/05/14 12:33:31;;;;;;;3.45;2.63;;;24.70;60.50;;;;;;4966063;28;20468;-65
2023/05/14 12:36:00;;;;;;;7.63;2.85;;;24.40;61.20;;;;;;4964960;28;20407;-65
2023/05/14 12:38:40;;;;;;;7.85;2.70;;;24.40;61.70;;;;;;4950263;28;20765;-62
2023/05/14 12:41:07;;;;;;;3.25;2.95;;;24.50;60.50;;;;;;4952606;28;20102;-64
2023/05/14 12:43:34;;;;;;;11.05;2.67;;;24.40;60.80;;;;;;4958721;28;20047;-64
2023/05/14 12:46:01;;;;;;;7.75;4.47;;;24.40;61.80;;;;;;4956861;28;20129;-63
2023/05/14 12:48:27;;;;;;;6.32;3.10;;;24.50;60.10;;;;;;4964387;28;20062;-64
2023/05/14 12:50:54;;;;;;;4.22;2.67;;;24.60;61.20;;;;;;4956589;28;20054;-65
2023/05/14 12:53:21;;;;;;;4.20;2.70;;;24.60;61.90;;;;;;4953827;28;20050;-64
2023/05/14 12:55:48;;;;;;;3.97;3.05;;;24.70;62.20;;;;;;4959116;28;20071;-62